Weather observations for the past three days for
La Porte Municipal Airport
Metric (Imperial)
Date Time (cdt) Wind (kph) Vis. (km) Weather Sky Cond. Temperature (ºC) Relative Humidity Wind Chill (°C) Heat Index (°C) Pressure Precipitation (cm)
Air Dwpt 6 hour altimeter (cm) sea level (mb) 1 hr 3 hr 6 hr
Max. Min.
03 18:55 S 20 G 33 16.09 Fair CLR 16 6 16.6 9.6 52% 75.59 0.0
03 18:35 S 17 G 28 16.09 Fair CLR 16 5 48% 75.62 0.0
03 18:15 S 24 G 33 16.09 A Few Clouds FEW110 16 5 48% 75.62 0.0
03 17:55 SW 22 G 37 16.09 A Few Clouds FEW070 FEW120 16 6 52% 75.64 0.0
03 17:35 S 24 G 33 16.09 Overcast BKN070 OVC110 16 5 48% 75.67 0.0
03 17:15 S 20 G 30 16.09 Mostly Cloudy BKN070 BKN100 15 7 59% 75.69 0.0
03 16:55 S 19 G 31 16.09 Partly Cloudy SCT095 SCT120 13 8 72% 75.72 0.0
03 16:35 S 24 G 39 16.09 Mostly Cloudy BKN095 13 8 72% 75.72 0.0
03 16:15 S 19 G 31 16.09 Mostly Cloudy BKN095 13 8 72% 75.74 0.0
03 15:55 S 19 G 39 16.09 Mostly Cloudy BKN095 12 8 77% 75.74 0.0
03 15:35 S 20 G 31 16.09 Overcast OVC095 11 9 88% 75.77 0.0
03 15:15 S 19 G 26 16.09 Overcast OVC085 11 9 88% 75.82 0.0
03 14:55 S 24 G 35 16.09 Mostly Cloudy BKN085 10 9 94% 7 75.84 0.0
03 14:35 S 24 G 39 16.09 Mostly Cloudy SCT075 BKN095 11 9 88% 75.87 0.0
03 14:15 S 26 G 33 16.09 Overcast SCT055 OVC075 11 10 94% 75.92 0.0
03 13:35 SW 28 G 37 16.09 Light Rain SCT046 BKN055 BKN070 10 9 94% 7 76.02 0.0
03 13:15 SW 33 G 59 9.66 Light Rain Haze and Breezy SCT045 BKN060 BKN085 10 7 82% 7 76.05 0.0
03 12:55 SW 31 G 57 16.09 Mostly Cloudy SCT070 BKN095 13 4 14.8 10 55% 76.02 0.0
03 12:35 SW 30 G 50 16.09 Mostly Cloudy FEW046 SCT070 BKN095 13 4 55% 76.02 0.0
03 12:15 SW 33 G 52 16.09 Partly Cloudy and Breezy SCT046 14 4 51% 76.02 0.0
03 11:55 SW 35 G 54 16.09 Fair and Breezy CLR 15 3 45% 76.02 0.0
03 11:35 SW 24 G 50 16.09 Fair CLR 14 3 48% 76.05 0.0
03 11:15 SW 37 G 44 16.09 Fair and Breezy CLR 14 3 48% 76.05 0.0
03 10:55 SW 30 G 52 16.09 Fair CLR 14 3 48% 76.07 0.0
03 10:35 SW 31 G 50 16.09 Fair CLR 14 3 48% 76.07 0.0
03 10:15 SW 28 G 37 16.09 A Few Clouds FEW080 14 3 48% 76.1 0.0
03 09:55 SW 28 G 44 16.09 Overcast OVC080 13 3 51% 76.1 0.0
03 09:35 SW 30 G 43 16.09 Mostly Cloudy BKN080 12 3 54% 76.12 0.0
03 09:15 SW 30 G 46 16.09 Fair CLR 11 2 54% 76.12 0.0
03 08:55 SW 22 16.09 Fair CLR 11 2 54% 76.15 0.0
03 08:35 SW 22 G 39 16.09 Fair CLR 10 2 58% 7 76.15 0.0
03 08:15 SW 20 16.09 NULL NULL 10 1 54% 8 76.17 0.0
03 07:35 SW 15 16.09 NULL NULL 8 1 62% 6 76.17 0.0
03 07:15 SW 19 16.09 NULL NULL 7 1 66% 4 76.15 0.0
03 06:55 SW 19 16.09 NULL NULL 6 1 71% 3 76.15 0.0
03 06:35 SW 13 16.09 NULL NULL 5 1 76% 2 76.15 0.0
03 06:15 SW 13 16.09 NULL NULL 4 0 75% 1 76.15 0.0
03 05:55 SW 13 16.09 NULL NULL 4 0 75% 1 76.15 0.0
03 05:35 SW 11 16.09 NULL NULL 4 0 75% 2 76.15 0.0
03 05:15 SW 11 16.09 NULL NULL 4 0 75% 2 76.15 0.0
03 04:55 SW 13 16.09 NULL NULL 4 0 75% 1 76.15 0.0
03 04:35 SW 11 16.09 NULL NULL 4 0 75% 2 76.15 0.0
03 04:15 SW 11 16.09 NULL NULL 4 0 75% 2 76.15 0.0
03 03:55 SW 13 16.09 NULL NULL 4 1 81% 1 76.15 0.0
03 03:35 SW 13 16.09 NULL NULL 4 1 81% 1 76.17 0.0
03 03:15 SW 13 16.09 NULL NULL 4 1 81% 1 76.17 0.0
03 02:55 SW 13 16.09 NULL NULL 4 0 75% 1 76.17 0.0
03 02:35 SW 13 16.09 NULL NULL 5 0 70% 2 76.17 0.0
03 02:15 SW 13 16.09 NULL NULL 5 0 70% 2 76.17 0.0
03 01:55 SW 11 16.09 NULL NULL 5 0 70% 3 76.2 0.0
03 01:35 SW 9 16.09 NULL NULL 5 0 70% 3 76.2 0.0
03 01:15 SW 7 16.09 NULL NULL 5 0 70% 4 76.23 0.0
03 00:55 S 7 16.09 NULL NULL 5 0 70% 4 76.23 0.0
03 00:35 S 7 16.09 NULL NULL 5 0 70% 4 76.25 0.0
03 00:15 S 9 16.09 NULL NULL 5 0 70% 3 76.25 0.0
02 23:55 S 9 16.09 NULL NULL 5 -1 66% 3 76.25 0.0
02 23:35 S 9 16.09 Fair CLR 5 -1 66% 3 76.25 0.0
02 23:15 S 7 16.09 Fair CLR 5 0 70% 4 76.25 0.0
02 22:55 S 7 16.09 Fair CLR 5 0 70% 4 76.28 0.0
02 22:35 S 6 16.09 Fair CLR 5 0 70% 76.28 0.0
02 22:15 Vrbl 6 16.09 Fair CLR 5 0 70% 76.28 0.0
02 21:55 S 4 16.09 Fair CLR 6 -1 61% 76.3 0.0
02 21:35 S 4 16.09 Fair CLR 5 0 70% 76.3 0.0
02 21:15 S 4 16.09 Fair CLR 5 4 93% 76.3 0.0
02 20:55 S 6 16.09 Fair CLR 5 3 87% 76.28 0.0
02 20:35 S 6 16.09 Fair CLR 5 4 93% 76.28 0.0
02 20:15 S 4 16.09 Fair CLR 6 4 87% 76.28 0.0
02 19:55 S 2 16.09 A Few Clouds FEW080 8 3 71% 76.28 0.0
02 19:35 W 2 16.09 Fair CLR 9 -2 46% 76.28 0.0
02 19:15 NW 4 16.09 Fair CLR 11 -5 32% 76.28 0.0
02 18:55 W 9 16.09 A Few Clouds FEW085 11 -4 12.1 9.2 35% 76.28 0.0
02 18:35 W 9 16.09 Partly Cloudy SCT085 11 -3 38% 76.3 0.0
02 18:15 NW 11 16.09 Fair CLR 11 -4 35% 76.3 0.0
02 17:55 NW 13 16.09 Fair CLR 12 -4 33% 76.3 0.0
02 17:35 W 13 16.09 Fair CLR 11 -4 35% 76.3 0.0
02 17:15 NW 19 16.09 Fair CLR 12 -4 33% 76.33 0.0
02 16:55 NW 20 16.09 Fair CLR 12 -4 33% 76.33 0.0
02 16:35 NW 17 G 28 16.09 Fair CLR 12 -3 35% 76.33 0.0
02 16:15 NW 26 16.09 Fair CLR 11 -3 38% 76.33 0.0
02 15:55 NW 20 G 26 16.09 Fair CLR 12 -3 35% 76.35 0.0
02 15:35 NW 19 G 35 16.09 Fair CLR 11 -3 38% 76.35 0.0
02 15:15 NW 20 G 33 16.09 Fair CLR 11 -4 35% 76.38 0.0
02 14:55 NW 19 G 31 16.09 Fair CLR 11 -3 38% 76.4 0.0
02 14:35 NW 22 G 30 16.09 Fair CLR 11 -4 35% 76.43 0.0
02 14:15 N 15 16.09 Fair CLR 10 -3 40% 8 76.43 0.0
02 13:55 N 20 G 31 16.09 Fair CLR 10 -4 37% 8 76.45 0.0
02 13:35 NW 20 16.09 Fair CLR 10 -4 37% 8 76.45 0.0
02 13:15 NW 22 G 30 16.09 Fair CLR 9 -4 40% 6 76.48 0.0
02 12:55 N 17 G 33 16.09 Fair CLR 9 -4 10.1 0.7 40% 7 76.48 0.0
02 12:35 N 20 G 28 16.09 Fair CLR 10 -3 40% 8 76.5 0.0
02 12:15 NW 24 G 31 16.09 Fair CLR 9 -4 40% 6 76.5 0.0
02 11:55 NW 19 G 28 16.09 Fair CLR 9 -3 43% 7 76.5 0.0
02 11:35 NW 9 16.09 Fair CLR 8 -4 43% 7 76.5 0.0
02 11:15 NW 17 16.09 A Few Clouds FEW050 9 -4 40% 7 76.5 0.0
02 10:55 Vrbl 11 16.09 A Few Clouds FEW050 9 -4 40% 8 76.53 0.0
02 10:35 N 13 16.09 A Few Clouds FEW050 8 -4 43% 6 76.53 0.0
02 10:15 N 19 16.09 A Few Clouds FEW050 8 -4 43% 5 76.5 0.0
02 09:55 Vrbl 11 16.09 A Few Clouds FEW048 7 -3 49% 5 76.5 0.0
02 09:35 NW 19 16.09 A Few Clouds FEW044 7 -2 53% 4 76.5 0.0
02 09:15 N 15 16.09 A Few Clouds FEW042 7 -2 53% 5 76.5 0.0
02 08:55 NW 15 16.09 Fair CLR 7 -3 49% 5 76.5 0.0
02 08:35 N 11 16.09 Fair CLR 6 -3 53% 4 76.5 0.0
02 08:15 N 13 16.09 Fair CLR 6 -3 53% 4 76.48 0.0
02 07:55 N 9 16.09 Fair CLR 5 -2 61% 3 76.48 0.0
02 07:35 N 11 16.09 Fair CLR 4 3 93% 2 76.48 0.0
02 07:15 Calm 16.09 Fair CLR 3 3 100% 76.48 0.0
02 06:55 W 2 16.09 Fair CLR 1 1 0.7 -1.8 100% 76.48 0.0
02 06:35 W 2 16.09 Fair CLR 0 0 100% 76.45 0.0
02 06:15 Calm 16.09 Fair CLR -1 -1 100% 76.45 0.0
02 05:55 W 2 16.09 Fair CLR -2 -2 100% 76.43 0.0
02 05:35 NW 4 16.09 Fair CLR -1 -1 100% 76.43 0.0
02 05:15 NW 6 16.09 Fair CLR -1 -1 100% 76.43 0.0
02 04:55 NW 4 16.09 Fair CLR -1 -1 100% 76.43 0.0
02 04:35 NW 6 16.09 Fair CLR -1 -1 100% 76.43 0.0
02 04:15 NW 7 16.09 Fair CLR 0 0 100% -2 76.43 0.0
02 03:55 N 6 16.09 Fair CLR -1 -1 100% 76.43 0.0
02 03:35 Vrbl 2 16.09 Fair CLR 0 0 100% 76.43 0.0
02 03:15 NW 2 16.09 Fair CLR 0 0 100% 76.43 0.0
02 02:55 NW 9 16.09 Fair CLR -1 -1 100% -4 76.43 0.0
02 02:35 NW 7 16.09 Fair CLR -1 -1 100% -3 76.43 0.0
02 02:15 NW 7 16.09 Fair CLR -1 -1 100% -3 76.43 0.0
02 01:55 W 7 16.09 Fair CLR -1 -1 100% -3 76.43 0.0
02 01:35 NW 7 16.09 Fair CLR -1 -1 100% -3 76.45 0.0
02 01:15 W 6 16.09 Fair CLR 0 0 100% 76.45 0.0
02 00:55 W 7 16.09 A Few Clouds FEW060 0 0 6.2 -0.3 100% -2 76.43 0.0
02 00:35 W 6 16.09 A Few Clouds FEW060 0 0 100% 76.45 0.0
02 00:15 SW 2 16.09 Partly Cloudy SCT060 0 0 100% 76.48 0.0
01 23:55 SW 4 16.09 Mostly Cloudy BKN060 BKN070 1 1 100% 76.48 0.0
01 23:35 SW 2 16.09 Overcast OVC060 2 2 100% 76.48 0.0
01 23:15 W 4 16.09 Mostly Cloudy BKN060 1 1 100% 76.45 0.0
01 22:55 NW 4 16.09 Mostly Cloudy BKN070 2 1 93% 76.45 0.0
01 22:35 Vrbl 4 16.09 A Few Clouds FEW055 3 0 81% 76.45 0.0
01 22:15 NW 4 16.09 A Few Clouds FEW055 3 0 81% 76.43 0.0
01 21:55 NW 7 16.09 Partly Cloudy SCT050 SCT070 3 -2 70% 1 76.43 0.0
01 21:35 NW 6 16.09 Overcast FEW042 BKN050 OVC070 3 -1 75% 76.4 0.0
01 21:15 N 13 16.09 Overcast FEW050 OVC070 4 -2 65% 1 76.4 0.0
01 20:55 N 13 16.09 Overcast BKN055 OVC070 4 -2 65% 1 76.4 0.0
01 20:35 N 17 16.09 Overcast OVC065 4 -3 61% 1 76.38 0.0
01 20:15 N 20 16.09 Overcast OVC065 5 -2 61% 1 76.35 0.0
01 19:55 N 15 16.09 Overcast OVC065 5 -1 66% 2 76.35 0.0
01 19:35 N 13 16.09 Mostly Cloudy FEW046 BKN065 BKN080 5 -1 66% 2 76.35 0.0
01 19:15 N 17 16.09 Partly Cloudy FEW065 SCT080 6 -2 57% 3 76.35 0.0
01 18:55 N 19 16.09 A Few Clouds FEW060 FEW080 6 -2 9.9 6.2 57% 3 76.33 0.0
01 18:35 N 20 16.09 Partly Cloudy FEW065 SCT080 7 -1 57% 4 76.33 0.0
01 18:15 N 24 16.09 Mostly Cloudy BKN065 BKN080 7 -2 53% 4 76.33 0.0
01 17:55 N 20 16.09 Partly Cloudy FEW070 SCT085 8 -1 53% 5 76.33 0.0
01 17:35 N 19 16.09 Mostly Cloudy FEW070 BKN085 8 -1 53% 5 76.33 0.0
01 17:15 N 17 16.09 Overcast OVC075 8 -1 53% 6 76.33 0.0
01 16:55 N 24 16.09 Mostly Cloudy SCT075 BKN085 9 -1 50% 6 76.3 0.0
01 16:35 N 15 G 31 16.09 A Few Clouds FEW080 9 -1 50% 7 76.3 0.0
01 16:15 N 17 16.09 Mostly Cloudy BKN080 9 -1 50% 7 76.3 0.0
01 15:55 NW 22 G 31 16.09 Overcast OVC080 9 -1 50% 6 76.3 0.0
01 15:35 N 19 G 26 16.09 Mostly Cloudy FEW060 BKN080 9 -1 50% 7 76.3 0.0
01 15:15 N 22 G 30 16.09 A Few Clouds FEW060 FEW070 9 1 58% 6 76.3 0.0
01 14:55 N 26 16.09 Fair CLR 9 0 54% 6 76.3 0.0
01 14:35 N 20 G 31 16.09 A Few Clouds FEW075 10 0 50% 8 76.3 0.0
01 14:15 N 22 G 33 16.09 Mostly Cloudy BKN075 10 1 54% 7 76.28 0.0
01 13:55 NW 24 G 39 16.09 A Few Clouds FEW040 FEW075 9 1 58% 6 76.28 0.0
01 13:35 NW 26 G 37 16.09 Partly Cloudy FEW036 SCT070 8 0 57% 5 76.28 0.0
01 13:15 NW 24 G 33 16.09 Mostly Cloudy SCT034 BKN040 BKN070 8 1 62% 5 76.28 0.0
01 12:55 NW 26 G 35 16.09 Partly Cloudy SCT031 SCT036 9 2 8.8 4.2 62% 6 76.25 0.0
01 12:35 NW 26 G 35 16.09 Mostly Cloudy BKN031 BKN035 8 2 66% 5 76.25 0.0
01 12:15 NW 26 G 35 16.09 A Few Clouds FEW031 9 2 62% 6 76.25 0.0
01 11:55 NW 24 G 33 16.09 Fair CLR 8 2 66% 5 76.25 0.0
01 11:35 NW 26 G 37 16.09 Partly Cloudy SCT050 9 2 62% 6 76.25 0.0
01 11:15 NW 22 16.09 Mostly Cloudy BKN050 BKN070 8 1 62% 5 76.25 0.0
01 10:55 NW 26 G 37 16.09 A Few Clouds FEW050 FEW070 9 2 62% 6 76.23 0.0
01 10:35 NW 24 G 31 16.09 Partly Cloudy FEW032 SCT050 8 2 66% 5 76.23 0.0
01 10:15 NW 26 G 31 16.09 A Few Clouds FEW032 8 1 62% 5 76.23 0.0
01 09:55 N 26 16.09 Fair CLR 8 1 62% 5 76.2 0.0
01 09:35 N 19 16.09 A Few Clouds FEW022 7 1 66% 4 76.2 0.0
01 09:15 N 20 G 28 16.09 Partly Cloudy SCT020 SCT025 7 6 93% 4 76.2 0.0
01 08:55 N 19 16.09 Mostly Cloudy SCT016 BKN022 6 6 100% 3 76.17 0.0
01 08:35 NW 17 16.09 Mostly Cloudy SCT012 BKN019 6 6 100% 3 76.17 0.0
01 08:15 NW 17 16.09 Overcast BKN012 OVC018 5 5 100% 2 76.17 0.0
01 07:55 NW 15 16.09 Overcast SCT009 BKN013 OVC018 5 5 100% 2 76.15 0.0
01 07:35 NW 7 16.09 Overcast BKN009 BKN022 OVC075 5 5 100% 4 76.15 0.0
01 07:15 N 9 16.09 Overcast SCT007 BKN013 OVC020 5 5 100% 3 76.15 0.0
01 06:55 NW 13 16.09 Overcast BKN007 BKN012 OVC070 5 5 5.2 3.5 100% 2 76.15 0.0
01 06:35 NE 6 16.09 Overcast SCT007 OVC012 4 4 100% 76.1 0.0
01 06:15 N 7 16.09 Overcast SCT014 SCT048 OVC090 4 4 100% 2 76.1 0.0
01 05:55 NE 9 16.09 Overcast SCT048 BKN060 OVC090 4 4 100% 2 76.07 0.0
01 05:35 NE 7 16.09 Overcast OVC060 4 4 100% 2 76.07 0.0
01 05:15 NE 7 16.09 Overcast OVC050 4 4 100% 2 76.07 0.0
01 04:55 E 9 16.09 Overcast SCT023 BKN050 OVC070 4 4 100% 2 76.05 0.0 0.03
01 04:35 E 11 16.09 Light Rain BKN010 BKN023 OVC065 4 4 100% 2 76.05 0.0
01 04:15 NE 13 9.66 Light Rain Fog/Mist SCT006 BKN011 OVC020 4 4 100% 1 76.05 0.0
01 03:55 NE 9 9.66 Light Rain Fog/Mist BKN006 OVC020 4 4 100% 2 76.05 0.0 0.05
01 03:35 NE 15 6.44 Light Rain Fog/Mist SCT006 OVC022 4 4 100% 1 76.05 0.0
01 03:15 NE 15 8.05 Light Rain Fog/Mist FEW006 OVC022 4 4 100% 1 76.05 0.0
01 02:55 NE 11 12.87 Light Rain FEW007 FEW011 OVC022 4 4 100% 2 76.05 0.0 0.1
01 02:35 NE 13 9.66 Light Rain Fog/Mist SCT007 OVC022 4 4 100% 1 76.05 0.0
01 02:15 NE 15 4.02 Light Rain Fog/Mist BKN007 BKN019 OVC028 4 4 100% 1 76.05 0.0
01 01:55 NE 13 4.02 Light Rain Fog/Mist SCT010 SCT015 OVC030 5 5 100% 2 76.07 0.0 0.08
01 01:35 NE 19 11.27 Light Rain BKN010 BKN014 OVC034 5 5 100% 2 76.05 0.0
01 01:15 NE 17 G 26 4.83 Light Rain Fog/Mist BKN008 OVC034 5 5 100% 2 76.07 0.0
01 00:55 NE 17 12.87 Light Rain FEW008 OVC034 5 5 9.9 4.9 100% 2 76.07 0.0 0.03
01 00:35 NE 17 16.09 Overcast FEW010 BKN034 OVC042 5 5 100% 2 76.1 0.0
30 23:55 NE 13 16.09 Overcast FEW009 OVC034 5 5 100% 2 76.1 0.0 0.03
30 23:35 NE 11 16.09 Overcast OVC034 6 6 100% 4 76.1 0.0
30 23:15 N 13 16.09 Light Rain OVC036 6 6 100% 4 76.1 0.0
30 22:55 NE 13 16.09 Light Rain OVC036 6 6 100% 4 76.1 0.0 0.03
30 22:35 N 13 16.09 Overcast OVC036 6 6 100% 4 76.12 0.0
30 22:15 NE 13 16.09 Overcast OVC036 6 6 100% 4 76.12 0.0
30 21:55 NE 9 16.09 Overcast OVC040 6 6 100% 4 76.12 0.0
30 21:35 NE 15 16.09 Light Rain BKN040 OVC047 7 7 100% 5 76.1 0.0
30 21:15 NE 13 16.09 Overcast FEW042 BKN047 OVC065 7 7 100% 5 76.12 0.0
30 20:55 NE 15 16.09 Overcast BKN040 BKN047 OVC065 7 7 100% 5 76.1 0.0
30 20:35 NE 11 16.09 Light Rain BKN039 OVC044 7 7 100% 5 76.1 0.0
30 20:15 NE 11 16.09 Light Rain BKN042 OVC048 7 7 100% 5 76.1 0.0
30 19:55 NE 13 16.09 Light Rain BKN040 BKN050 OVC060 8 6 87% 6 76.07 0.0 0.03
30 19:35 N 7 16.09 Light Rain SCT038 SCT045 OVC060 8 8 100% 7 76.07 0.0
Date Time (cdt) Wind (kph) Vis. (km) Weather Sky Cond. Air Dwpt Max. Min. Relative Humidity Wind Chill (°C) Heat Index (°C) altimeter (cm) sea level (mb) 1 hr 3 hr 6 hr
6 hour
Temperature (ºC) Pressure Precipitation (cm)